Latest Weather Observations for Delta

IDN60801

Issued at 7:42 pm EST Wednesday 19 September 2018 (issued every 10 minutes, with the page automatically refreshed every 10 minutes)

About weather observations | Map of weather stations | Latest weather observations for NSW | Other Formats
Station Details ID: 048247 Name: DELTA AWS Lat: -30.10 Lon: 145.33 Height: 109.0 m
Data from the previous 72 hours. | See also: Recent months at Delta
Date/Time
EST
Temp
°C
App
Temp
°C
Dew
Point
°C
Rel
Hum
%
Delta-T
°C
Wind Press
QNH
hPa
Press
MSL
hPa
Rain since
9am
mm
Dir  Spd
km/h
Gust
km/h
Spd
kts
Gust
kts
19/07:30pm 17.3 - -6.5 19 9.0 - - - - - - - 0.0
19/07:00pm 17.9 - -6.7 18 9.3 - - - - - - - 0.0
19/06:30pm 18.5 - -7.0 17 9.7 - - - - - - - 0.0
19/06:00pm 19.3 - -6.3 17 9.9 - - - - - - - 0.0
19/05:30pm 20.4 - -4.7 18 10.2 - - - - - - - 0.0
19/05:00pm 21.3 - -3.2 19 10.3 - - - - - - - 0.0
19/04:30pm 21.4 - -2.5 20 10.2 - - - - - - - 0.0
19/04:00pm 21.9 - -1.4 21 10.2 - - - - - - - 0.0
19/03:30pm 22.0 - -1.3 21 10.3 - - - - - - - 0.0
19/03:00pm 21.9 - -0.8 22 10.1 - - - - - - - 0.0
19/02:30pm 22.0 - -0.7 22 10.1 - - - - - - - 0.0
19/02:00pm 21.3 - -0.6 23 9.7 - - - - - - - 0.0
19/01:30pm 21.4 - -0.6 23 9.8 - - - - - - - 0.0
19/01:00pm 21.3 - -0.1 24 9.6 - - - - - - - 0.0
19/12:30pm 20.5 - 0.9 27 8.9 - - - - - - - 0.0
19/12:00pm 20.1 - 0.0 26 8.9 - - - - - - - 0.0
19/11:30am 19.6 - 0.1 27 8.6 - - - - - - - 0.0
19/11:00am 19.0 - 0.6 29 8.2 - - - - - - - 0.0
19/10:30am 18.3 - 0.9 31 7.8 - - - - - - - 0.0
19/10:00am 16.7 - 1.6 36 6.7 - - - - - - - 0.0
19/09:30am 16.8 - 3.8 42 6.1 - - - - - - - 0.0
19/09:00am 16.2 - 3.9 44 5.7 - - - - - - - 0.0
19/08:30am 16.1 - 3.5 43 5.8 - - - - - - - 0.0
19/08:00am 16.1 - 2.5 40 6.2 - - - - - - - 0.0
19/07:30am 15.4 - 0.0 35 6.6 - - - - - - - 0.0
19/07:00am 15.4 - 1.5 39 6.1 - - - - - - - 0.0
19/06:30am 15.5 - -0.7 33 6.8 - - - - - - - 0.0
19/06:00am 15.7 - -3.2 27 7.5 - - - - - - - 0.0
19/05:30am 15.8 - -5.8 22 8.2 - - - - - - - 0.0
19/05:00am 11.5 - -12.7 17 7.4 - - - - - - - 0.0
19/04:30am 7.8 - -13.1 21 6.0 - - - - - - - 0.0
19/04:00am 8.0 - -13.0 21 6.1 - - - - - - - 0.0
19/03:30am 8.6 - -13.1 20 6.3 - - - - - - - 0.0
19/03:00am 10.1 - -12.4 19 6.8 - - - - - - - 0.0
19/02:30am 10.4 - -12.9 18 7.0 - - - - - - - 0.0
19/02:00am 11.4 - -12.0 18 7.3 - - - - - - - 0.0
19/01:30am 10.4 - -13.6 17 7.1 - - - - - - - 0.0
19/01:00am 8.7 - -14.3 18 6.5 - - - - - - - 0.0
19/12:30am 8.2 - -14.7 18 6.4 - - - - - - - 0.0
19/12:00am 8.7 - -13.6 19 6.4 - - - - - - - 0.0
 
Date/Time
EST
Temp
°C
App
Temp
°C
Dew
Point
°C
Rel
Hum
%
Delta-T
°C
Wind Press
QNH
hPa
Press
MSL
hPa
Rain since
9am
mm
Dir  Spd
km/h
Gust
km/h
Spd
kts
Gust
kts
18/11:30pm 9.0 - -14.0 18 6.6 - - - - - - - 0.0
18/11:00pm 9.1 - -13.3 19 6.5 - - - - - - - 0.0
18/10:30pm 9.8 - -13.4 18 6.8 - - - - - - - 0.0
18/10:00pm 10.4 - -13.6 17 7.1 - - - - - - - 0.0
18/09:30pm 11.1 - -13.7 16 7.4 - - - - - - - 0.0
18/09:00pm 12.1 - -13.7 15 7.8 - - - - - - - 0.0
18/08:30pm 13.3 - -13.6 14 8.3 - - - - - - - 0.0
18/08:00pm 14.4 - -13.6 13 8.8 - - - - - - - 0.0
18/07:30pm 16.2 - -14.3 11 9.7 - - - - - - - 0.0
18/07:00pm 19.0 - -14.5 9 11.0 - - - - - - - 0.0
18/06:30pm 23.3 - -12.8 8 12.9 - - - - - - - 0.0
18/06:00pm 26.1 - -14.2 6 14.5 - - - - - - - 0.0
18/05:30pm 26.9 - -13.7 6 14.9 - - - - - - - 0.0
18/05:00pm 27.3 - -13.4 6 15.0 - - - - - - - 0.0
18/04:30pm 27.6 - -13.2 6 15.2 - - - - - - - 0.0
18/04:00pm 27.5 - -13.2 6 15.1 - - - - - - - 0.0
18/03:30pm 27.4 - -13.3 6 15.1 - - - - - - - 0.0
18/03:00pm 27.5 - -13.2 6 15.1 - - - - - - - 0.0
18/02:30pm 27.1 - -13.5 6 14.9 - - - - - - - 0.0
18/02:00pm 26.6 - -13.9 6 14.7 - - - - - - - 0.0
18/01:30pm 27.0 - -11.7 7 14.7 - - - - - - - 0.0
18/01:00pm 26.2 - -10.6 8 14.1 - - - - - - - 0.0
18/12:30pm 25.9 - -10.8 8 14.0 - - - - - - - 0.0
18/12:00pm 24.5 - -11.9 8 13.4 - - - - - - - 0.0
18/11:30am 24.5 - -10.4 9 13.2 - - - - - - - 0.0
18/11:00am 24.1 - -10.7 9 13.0 - - - - - - - 0.0
18/10:30am 23.0 - -10.2 10 12.4 - - - - - - - 0.0
18/10:00am 22.1 - -9.7 11 11.9 - - - - - - - 0.0
18/09:30am 20.6 - -9.8 12 11.2 - - - - - - - 0.0
18/09:00am 17.8 - -8.3 16 9.6 - - - - - - - 0.0
18/08:30am 15.4 - -8.8 18 8.5 - - - - - - - 0.0
18/08:00am 13.2 - -8.6 21 7.5 - - - - - - - 0.0
18/07:30am 9.4 - -8.2 28 5.8 - - - - - - - 0.0
18/07:00am 4.8 - -12.1 28 4.7 - - - - - - - 0.0
18/06:30am 1.6 - -12.5 34 3.8 - - - - - - - 0.0
18/06:00am 1.4 - -12.0 36 3.7 - - - - - - - 0.0
18/05:30am 1.2 - -14.0 31 3.9 - - - - - - - 0.0
18/05:00am 1.2 - -14.4 30 4.0 - - - - - - - 0.0
18/04:30am 1.5 - -13.4 32 4.0 - - - - - - - 0.0
18/04:00am 1.9 - -14.2 29 4.2 - - - - - - - 0.0
18/03:30am 2.0 - -13.3 31 4.1 - - - - - - - 0.0
18/03:00am 2.7 - -13.5 29 4.4 - - - - - - - 0.0
18/02:30am 3.3 - -13.0 29 4.6 - - - - - - - 0.0
18/02:00am 3.7 - -12.7 29 4.7 - - - - - - - 0.0
18/01:30am 3.9 - -12.5 29 4.7 - - - - - - - 0.0
18/01:00am 4.5 - -11.1 31 4.5 - - - - - - - 0.0
18/12:30am 4.6 - -12.8 27 5.1 - - - - - - - 0.0
18/12:00am 5.0 - -12.0 28 4.8 - - - - - - - 0.0
 
Date/Time
EST
Temp
°C
App
Temp
°C
Dew
Point
°C
Rel
Hum
%
Delta-T
°C
Wind Press
QNH
hPa
Press
MSL
hPa
Rain since
9am
mm
Dir  Spd
km/h
Gust
km/h
Spd
kts
Gust
kts
17/11:30pm 5.6 - -12.4 26 5.1 - - - - - - - 0.0
17/11:00pm 6.1 - -11.9 26 5.2 - - - - - - - 0.0
17/10:30pm 7.0 - -10.7 27 5.3 - - - - - - - 0.0
17/10:00pm 7.6 - -11.1 25 5.6 - - - - - - - 0.0
17/09:30pm 8.5 - -11.4 23 6.0 - - - - - - - 0.0
17/09:00pm 9.2 - -11.4 22 6.3 - - - - - - - 0.0
17/08:30pm 10.5 - -10.9 21 6.7 - - - - - - - 0.0
17/08:00pm 12.1 - -10.1 20 7.3 - - - - - - - 0.0
17/07:30pm 14.0 - -9.2 19 8.0 - - - - - - - 0.0
17/07:00pm 15.5 - -9.4 17 8.7 - - - - - - - 0.0
17/06:30pm 17.8 - -9.1 15 9.7 - - - - - - - 0.0
17/06:00pm 20.0 - -9.2 13 10.8 - - - - - - - 0.0
17/05:30pm 20.7 - -9.7 12 11.2 - - - - - - - 0.0
17/05:00pm 20.8 - -9.6 12 11.2 - - - - - - - 0.0
17/04:30pm 21.4 - -9.1 12 11.5 - - - - - - - 0.0
17/04:00pm 20.6 - -9.8 12 11.2 - - - - - - - 0.0
17/03:30pm 20.6 - -8.7 13 11.0 - - - - - - - 0.0
17/03:00pm 20.6 - -7.8 14 10.8 - - - - - - - 0.0
17/02:30pm 20.1 - -8.2 14 10.7 - - - - - - - 0.0
17/02:00pm 19.2 - -7.2 16 10.1 - - - - - - - 0.0
17/01:30pm 19.6 - -6.9 16 10.2 - - - - - - - 0.0
17/01:00pm 18.4 - -7.1 17 9.6 - - - - - - - 0.0
17/12:30pm 18.2 - -5.8 19 9.3 - - - - - - - 0.0
17/12:00pm 17.4 - -5.8 20 8.9 - - - - - - - 0.0
17/11:30am 16.6 - -5.2 22 8.4 - - - - - - - 0.0
17/11:00am 16.0 - -5.1 23 8.1 - - - - - - - 0.0
17/10:30am 15.9 - -4.6 24 8.0 - - - - - - - 0.0
17/10:00am 15.3 - -4.6 25 7.7 - - - - - - - 0.0
17/09:30am 14.4 - -4.3 27 7.2 - - - - - - - 0.0
17/09:00am 13.7 - -4.5 28 6.9 - - - - - - - 0.0
17/08:30am 12.2 - -4.8 30 6.3 - - - - - - - 0.0
17/08:00am 10.3 - -6.1 31 5.8 - - - - - - - 0.0
17/07:30am 7.8 - -7.1 34 4.9 - - - - - - - 0.0
17/07:27am 7.4 - -7.4 34 4.8 - - - - - - - 0.0
17/07:00am 2.4 - -10.4 38 3.8 - - - - - - - 0.0
17/06:30am 0.9 - -10.2 43 3.2 - - - - - - - 0.0
17/06:00am 1.4 - -10.7 40 3.4 - - - - - - - 0.0
17/05:30am 2.0 - -11.1 37 3.7 - - - - - - - 0.0
17/05:00am 3.3 - -9.3 39 3.9 - - - - - - - 0.0
17/04:30am 5.4 - -9.2 34 4.4 - - - - - - - 0.0
17/04:00am 6.9 - -8.2 33 4.8 - - - - - - - 0.0
17/03:30am 7.7 - -7.9 32 5.1 - - - - - - - 0.0
17/03:00am 7.9 - -8.2 31 5.2 - - - - - - - 0.0
17/02:30am 8.3 - -8.2 30 5.4 - - - - - - - 0.0
17/02:00am 8.9 - -8.1 29 5.6 - - - - - - - 0.0
17/01:30am 9.1 - -8.4 28 5.7 - - - - - - - 0.0
17/01:00am 9.2 - -8.3 28 5.7 - - - - - - - 0.0
17/12:30am 9.7 - -8.4 27 6.0 - - - - - - - 0.0
17/12:00am 10.2 - -8.4 26 6.2 - - - - - - - 0.0
 
Date/Time
EST
Temp
°C
App
Temp
°C
Dew
Point
°C
Rel
Hum
%
Delta-T
°C
Wind Press
QNH
hPa
Press
MSL
hPa
Rain since
9am
mm
Dir  Spd
km/h
Gust
km/h
Spd
kts
Gust
kts
16/11:30pm 11.0 - -8.8 24 6.6 - - - - - - - 0.0
16/11:00pm 10.8 - -8.9 24 6.5 - - - - - - - 0.0
16/10:30pm 10.2 - -8.4 26 6.2 - - - - - - - 0.0
16/10:00pm 7.7 - -9.2 29 5.3 - - - - - - - 0.0
16/09:30pm 8.0 - -10.3 26 5.6 - - - - - - - 0.0
16/09:00pm 10.2 - -8.9 25 6.3 - - - - - - - 0.0
16/08:30pm 11.9 - -8.5 23 6.9 - - - - - - - 0.0
16/08:00pm 12.5 - -8.6 22 7.2 - - - - - - - 0.0

Other Formats:

Comma delimited format used in spreadsheet applications
http://www.bom.gov.au/fwo/IDN60801/IDN60801.95681.axf

JavaScript Object Notation format (JSON) in row-major order
http://www.bom.gov.au/fwo/IDN60801/IDN60801.95681.json